Accueil
METAR-TAF:

METAR-TAF

Aéroports :

Aéroport Agen-La Garenne

Agen, France

latitude: 44-11N, longitude: 000-36E, altitude: 61 m

Observation

Le bulletin a été fait il y a 34 minutes, à 18:00 UTC
Vent 5 kt de nord, variant entre nord/nord-ouest et nord/nord-est
Température 31°C
Humidité 40%
Pression 1014 hPa
Visibilité 10 km ou plus
pas de nuages en-dessous de 1500 mètres et pas de cumulonimbus.

METAR: LFBA 151800Z AUTO 36005KT 330V030 CAVOK 31/16 Q1014 NOSIG

Heure: 20:34 (18:34 UTC)

Prévision

Le bulletin a été fait il y a 4 heures et 34 minutes, à 14:00 UTC
Prévision valable du 15 à 15 UTC au 15 à 24 UTC
Vent 5 kt de ouest/nord-ouest
Visibilité 10 km ou plus
pas de nuages en-dessous de 1500 mètres et pas de cumulonimbus.

TAF: LFBA 151400Z 1515/1524 30005KT CAVOK

Observations et prévisions météorologiques de plus de 4000 aéroports (messages METAR et TAF).

Les stations disponibles sont représentées par des disques jaunes et rouges sur la carte.

Passer la souris dessus pour voir le nom de la station.

Cliquer dessus pour voir les observations et prévisions météorologiques.

Pour changer de carte: cliquez sur les boutons verts avec une croix noire pour zoomer, sur le bouton vert avec un tiret pour effectuer un zoom arrière, ou sur les flèches vertes pour les cartes adjacentes.


METAR-TAF: